createdAt,value
2018-07-31T00:03:00.375Z,1.80
2018-07-31T00:06:54.358Z,1.87
2018-07-31T00:10:48.314Z,1.80
2018-07-31T00:14:42.281Z,1.70
2018-07-31T00:18:36.268Z,2.10
2018-07-31T00:22:30.203Z,1.80
2018-07-31T00:26:24.245Z,2.50
2018-07-31T00:30:18.145Z,1.90
2018-07-31T00:34:12.060Z,2.20
2018-07-31T00:38:05.516Z,2.03
2018-07-31T00:41:59.529Z,1.90
2018-07-31T00:45:53.510Z,2.17
2018-07-31T00:49:47.440Z,1.83
2018-07-31T00:53:42.410Z,1.90
2018-07-31T00:57:36.404Z,1.93
2018-07-31T01:01:30.510Z,2.20
2018-07-31T01:05:24.468Z,2.37
2018-07-31T01:09:18.491Z,2.27
2018-07-31T01:13:12.485Z,2.40
2018-07-31T01:17:06.415Z,2.20
2018-07-31T01:21:02.733Z,2.50
2018-07-31T01:24:56.845Z,2.27
2018-07-31T01:28:50.977Z,2.60
2018-07-31T01:32:44.919Z,2.50
2018-07-31T01:36:38.832Z,2.80
2018-07-31T01:40:32.413Z,3.00
2018-07-31T01:44:26.348Z,3.70
2018-07-31T01:48:20.248Z,3.23
2018-07-31T01:52:14.284Z,3.20
2018-07-31T01:56:08.237Z,4.10
2018-07-31T02:00:02.836Z,4.30
2018-07-31T02:03:56.879Z,5.03
2018-07-31T02:07:50.909Z,5.60
2018-07-31T02:11:44.887Z,5.17
2018-07-31T02:15:38.912Z,6.77
2018-07-31T02:19:32.854Z,5.50
2018-07-31T02:23:26.765Z,6.13
2018-07-31T02:27:20.751Z,5.00
2018-07-31T02:31:14.784Z,5.67
2018-07-31T02:35:08.712Z,4.60
2018-07-31T02:39:02.211Z,4.97
2018-07-31T02:42:56.195Z,5.67
2018-07-31T02:46:50.262Z,5.13
2018-07-31T02:50:44.162Z,6.10
2018-07-31T02:54:38.055Z,6.07
2018-07-31T02:58:32.041Z,7.23
2018-07-31T03:02:26.007Z,6.17
2018-07-31T03:06:20.055Z,6.50
2018-07-31T03:10:13.953Z,6.20
2018-07-31T03:14:07.895Z,6.97
2018-07-31T03:18:01.988Z,6.00
2018-07-31T03:21:55.898Z,7.80
2018-07-31T03:25:49.874Z,6.57
2018-07-31T03:29:43.945Z,7.43
2018-07-31T03:33:37.883Z,6.27
2018-07-31T03:37:31.894Z,7.13
2018-07-31T03:41:25.395Z,7.80
2018-07-31T03:45:19.351Z,6.97
2018-07-31T03:49:13.299Z,9.30
2018-07-31T03:53:07.191Z,7.50
2018-07-31T03:57:00.790Z,6.77
2018-07-31T04:00:54.760Z,7.17
2018-07-31T04:08:41.886Z,6.50
2018-07-31T04:12:35.778Z,7.63
2018-07-31T04:16:29.703Z,7.30
2018-07-31T04:20:23.664Z,6.97
2018-07-31T04:24:17.728Z,7.10
2018-07-31T04:32:11.858Z,7.10
2018-07-31T04:36:06.253Z,6.73
2018-07-31T04:39:59.720Z,7.20
2018-07-31T04:43:53.740Z,6.80
2018-07-31T04:47:47.700Z,7.63
2018-07-31T04:51:41.622Z,7.70
2018-07-31T04:55:35.644Z,7.13
2018-07-31T04:59:29.286Z,6.77
2018-07-31T05:03:23.215Z,5.80
2018-07-31T05:07:17.250Z,6.40
2018-07-31T05:11:11.327Z,6.40
2018-07-31T05:15:05.613Z,7.00
2018-07-31T05:18:59.647Z,7.27
2018-07-31T05:22:53.728Z,9.80
2018-07-31T05:26:47.760Z,7.63
2018-07-31T05:30:41.790Z,7.13
2018-07-31T05:34:35.735Z,7.27
2018-07-31T05:38:29.210Z,6.40
2018-07-31T05:42:23.191Z,7.20
2018-07-31T05:46:17.280Z,7.58
2018-07-31T05:50:11.288Z,7.00
2018-07-31T05:54:05.260Z,7.40
2018-07-31T05:57:59.225Z,8.63
2018-07-31T06:01:53.254Z,7.47
2018-07-31T06:05:47.099Z,7.03
2018-07-31T06:09:41.108Z,7.60
2018-07-31T06:13:35.222Z,7.08
2018-07-31T06:17:29.306Z,7.83
2018-07-31T06:21:23.351Z,7.00
2018-07-31T06:25:17.420Z,6.95
2018-07-31T06:29:11.727Z,6.28
2018-07-31T06:33:05.752Z,6.80
2018-07-31T06:36:59.272Z,7.42
2018-07-31T06:40:52.775Z,7.22
2018-07-31T06:44:47.013Z,7.80
2018-07-31T06:48:41.083Z,7.25
2018-07-31T06:52:35.045Z,7.87
2018-07-31T06:56:29.044Z,8.10
2018-07-31T07:00:23.048Z,6.72
2018-07-31T07:04:17.046Z,7.03
2018-07-31T07:08:11.975Z,9.60
2018-07-31T07:12:06.070Z,7.00
2018-07-31T07:16:00.072Z,5.55
2018-07-31T07:19:54.250Z,5.30
2018-07-31T07:23:48.266Z,4.83
2018-07-31T07:27:42.225Z,4.97
2018-07-31T07:31:36.657Z,4.60
2018-07-31T07:35:30.733Z,4.60
2018-07-31T07:39:24.235Z,4.90
2018-07-31T07:43:18.999Z,5.20
2018-07-31T07:47:13.297Z,5.40
2018-07-31T07:51:07.357Z,4.67
2018-07-31T07:55:01.374Z,5.05
2018-07-31T07:58:55.432Z,4.35
2018-07-31T08:02:49.390Z,4.55
2018-07-31T08:06:43.373Z,3.98
2018-07-31T08:10:38.574Z,4.03
2018-07-31T08:14:32.522Z,4.62
2018-07-31T08:18:26.505Z,4.20
2018-07-31T08:22:20.296Z,4.20
2018-07-31T08:26:14.725Z,4.00
2018-07-31T08:30:08.984Z,4.47
2018-07-31T08:34:03.285Z,5.92
2018-07-31T08:37:57.487Z,7.78
2018-07-31T08:41:51.009Z,4.40
2018-07-31T08:45:45.076Z,5.17
2018-07-31T08:49:39.418Z,2.65
2018-07-31T08:53:33.180Z,2.85
2018-07-31T08:57:27.838Z,2.70
2018-07-31T09:01:21.707Z,3.62
2018-07-31T09:05:15.801Z,2.75
2018-07-31T09:09:11.240Z,4.30
2018-07-31T09:13:05.450Z,2.72
2018-07-31T09:16:59.593Z,3.00
2018-07-31T09:20:53.659Z,2.52
2018-07-31T09:24:48.032Z,2.52
2018-07-31T09:28:42.012Z,4.42
2018-07-31T09:32:42.196Z,2.52
2018-07-31T09:36:36.414Z,2.40
2018-07-31T09:40:29.913Z,2.27
2018-07-31T09:44:23.655Z,1.70
2018-07-31T09:48:17.609Z,2.15
2018-07-31T09:52:11.559Z,2.25
2018-07-31T09:56:05.652Z,3.50
2018-07-31T09:59:59.706Z,1.90
2018-07-31T10:03:53.863Z,1.70
2018-07-31T10:07:47.847Z,2.12
2018-07-31T10:11:41.951Z,1.42
2018-07-31T10:15:36.037Z,1.70
2018-07-31T10:19:30.089Z,1.50
2018-07-31T10:23:24.210Z,1.92
2018-07-31T10:27:18.167Z,1.80
2018-07-31T10:31:12.328Z,1.52
2018-07-31T10:35:06.615Z,1.80
2018-07-31T10:39:00.244Z,2.60
2018-07-31T10:42:54.743Z,1.95
2018-07-31T10:46:48.454Z,1.55
2018-07-31T10:50:42.327Z,1.80
2018-07-31T10:54:36.178Z,2.20
2018-07-31T10:58:30.645Z,1.63
2018-07-31T11:02:24.615Z,1.45
2018-07-31T11:06:18.632Z,1.85
2018-07-31T11:10:12.719Z,1.60
2018-07-31T11:14:07.318Z,1.60
2018-07-31T11:18:01.412Z,1.60
2018-07-31T11:21:55.476Z,1.50
2018-07-31T11:25:49.512Z,1.98
2018-07-31T11:29:43.651Z,1.50
2018-07-31T11:33:37.722Z,1.62
2018-07-31T11:37:31.814Z,1.70
2018-07-31T11:41:26.220Z,1.80
2018-07-31T11:45:19.503Z,2.20
2018-07-31T11:49:13.479Z,1.55
2018-07-31T11:53:07.517Z,1.80
2018-07-31T11:57:01.474Z,1.90
2018-07-31T12:00:55.449Z,1.52
2018-07-31T12:04:49.545Z,1.65
2018-07-31T12:08:43.624Z,1.30
2018-07-31T12:12:37.736Z,3.58
2018-07-31T12:16:31.804Z,1.52
2018-07-31T12:20:25.958Z,1.30
2018-07-31T12:24:20.034Z,1.60
2018-07-31T12:28:14.508Z,1.45
2018-07-31T12:32:08.193Z,1.70
2018-07-31T12:36:02.144Z,1.72
2018-07-31T12:39:55.627Z,2.10
2018-07-31T12:43:49.846Z,1.55
2018-07-31T12:47:43.910Z,1.37
2018-07-31T12:51:37.945Z,1.23
2018-07-31T12:55:31.947Z,2.08
2018-07-31T12:59:26.151Z,1.37
2018-07-31T13:03:20.246Z,1.70
2018-07-31T13:07:14.365Z,1.90
2018-07-31T13:11:08.046Z,1.10
2018-07-31T13:15:01.947Z,1.57
2018-07-31T13:18:56.011Z,1.40
2018-07-31T13:22:50.000Z,1.40
2018-07-31T13:26:43.987Z,1.95
2018-07-31T13:30:38.043Z,1.50
2018-07-31T13:34:32.012Z,1.20
2018-07-31T13:38:25.448Z,1.40
2018-07-31T13:42:19.596Z,5.67
2018-07-31T13:46:13.523Z,1.20
2018-07-31T13:50:07.850Z,1.30
2018-07-31T13:54:02.639Z,1.15
2018-07-31T13:57:57.411Z,1.10
2018-07-31T14:01:51.390Z,1.20
2018-07-31T14:05:45.436Z,1.35
2018-07-31T14:09:39.695Z,1.17
2018-07-31T14:13:33.821Z,1.20
2018-07-31T14:17:27.878Z,1.42
2018-07-31T14:21:21.913Z,1.90
2018-07-31T14:25:16.156Z,1.30
2018-07-31T14:29:10.187Z,1.20
2018-07-31T14:33:04.204Z,1.02
2018-07-31T14:36:58.276Z,1.37
2018-07-31T14:40:51.750Z,1.37
2018-07-31T14:44:45.851Z,1.40
2018-07-31T14:48:39.757Z,1.30
2018-07-31T14:52:33.799Z,1.50
2018-07-31T14:56:28.442Z,1.12
2018-07-31T15:00:22.597Z,1.40
2018-07-31T15:04:17.215Z,1.07
2018-07-31T15:08:11.220Z,1.02
2018-07-31T15:12:05.396Z,1.20
2018-07-31T15:15:59.580Z,1.30
2018-07-31T15:19:53.626Z,1.20
2018-07-31T15:23:47.615Z,0.78
2018-07-31T15:27:41.711Z,1.10
2018-07-31T15:31:35.680Z,0.82
2018-07-31T15:35:30.291Z,1.02
2018-07-31T15:39:23.857Z,1.02
2018-07-31T15:43:17.947Z,0.70
2018-07-31T15:47:12.003Z,1.20
2018-07-31T15:51:06.174Z,1.27
2018-07-31T15:55:00.544Z,0.80
2018-07-31T15:58:54.619Z,1.00
2018-07-31T16:02:48.687Z,1.15
2018-07-31T16:06:42.728Z,1.30
2018-07-31T16:10:36.679Z,1.60
2018-07-31T16:14:30.832Z,1.90
2018-07-31T16:18:25.052Z,1.60
2018-07-31T16:22:19.077Z,1.60
2018-07-31T16:26:13.147Z,1.57
2018-07-31T16:30:07.401Z,1.62
2018-07-31T16:34:01.642Z,2.30
2018-07-31T16:37:55.692Z,1.70
2018-07-31T16:41:49.187Z,1.53
2018-07-31T16:45:43.270Z,1.67
2018-07-31T16:49:37.295Z,1.40
2018-07-31T16:53:31.303Z,1.27
2018-07-31T16:57:25.248Z,1.80
2018-07-31T17:01:19.452Z,1.60
2018-07-31T17:05:13.603Z,1.50
2018-07-31T17:09:08.035Z,1.72
2018-07-31T17:13:02.549Z,1.50
2018-07-31T17:16:56.361Z,1.30
2018-07-31T17:20:50.394Z,1.72
2018-07-31T17:24:44.467Z,1.72
2018-07-31T17:28:38.571Z,1.37
2018-07-31T17:32:34.119Z,1.40
2018-07-31T17:36:29.020Z,1.45
2018-07-31T17:40:24.253Z,1.52
2018-07-31T17:44:18.303Z,1.80
2018-07-31T17:48:12.023Z,2.08
2018-07-31T17:52:06.077Z,1.95
2018-07-31T17:56:00.036Z,1.70
2018-07-31T17:59:54.070Z,1.75
2018-07-31T18:03:48.048Z,1.40
2018-07-31T18:07:42.147Z,1.70
2018-07-31T18:11:36.191Z,1.80
2018-07-31T18:15:30.312Z,1.77
2018-07-31T18:19:24.386Z,1.70
2018-07-31T18:23:18.455Z,1.72
2018-07-31T18:27:12.582Z,1.85
2018-07-31T18:31:06.614Z,1.60
2018-07-31T18:35:00.600Z,1.80
2018-07-31T18:38:53.796Z,1.77
2018-07-31T18:42:47.736Z,2.00
2018-07-31T18:46:41.861Z,1.80
2018-07-31T18:50:36.175Z,1.72
2018-07-31T18:54:30.273Z,1.72
2018-07-31T18:58:24.196Z,1.37
2018-07-31T19:02:17.847Z,2.22
2018-07-31T19:06:11.636Z,2.20
2018-07-31T19:13:58.772Z,1.62
2018-07-31T19:17:52.771Z,2.20
2018-07-31T19:21:46.779Z,1.75
2018-07-31T19:25:40.776Z,1.87
2018-07-31T19:29:34.945Z,1.98
2018-07-31T19:33:28.995Z,1.92
2018-07-31T19:37:22.907Z,1.85
2018-07-31T19:41:18.056Z,1.75
2018-07-31T19:45:12.059Z,1.70
2018-07-31T19:49:06.164Z,1.77
2018-07-31T19:53:00.200Z,1.80
2018-07-31T19:56:54.170Z,1.80
2018-07-31T20:00:48.188Z,1.70
2018-07-31T20:04:42.201Z,1.87
2018-07-31T20:08:36.182Z,2.00
2018-07-31T20:12:30.114Z,2.02
2018-07-31T20:16:24.032Z,1.50
2018-07-31T20:20:18.007Z,1.80
2018-07-31T20:24:11.908Z,1.77
2018-07-31T20:28:06.016Z,1.73
2018-07-31T20:31:59.984Z,1.85
2018-07-31T20:35:53.957Z,1.73
2018-07-31T20:39:47.383Z,2.10
2018-07-31T20:43:41.327Z,1.63
2018-07-31T20:47:35.321Z,2.00
2018-07-31T20:51:29.399Z,1.97
2018-07-31T20:55:23.565Z,2.20
2018-07-31T20:59:17.555Z,1.90
2018-07-31T21:03:11.498Z,1.63
2018-07-31T21:07:05.524Z,1.87
2018-07-31T21:10:59.932Z,1.67
2018-07-31T21:14:54.519Z,1.77
2018-07-31T21:18:48.329Z,1.67
2018-07-31T21:22:42.514Z,1.70
2018-07-31T21:26:36.424Z,1.53
2018-07-31T21:30:31.269Z,1.70
2018-07-31T21:34:25.313Z,1.43
2018-07-31T21:38:19.386Z,1.50
2018-07-31T21:42:12.759Z,2.20
2018-07-31T21:46:06.720Z,2.57
2018-07-31T21:50:00.875Z,2.50
2018-07-31T21:53:55.636Z,2.40
2018-07-31T21:57:49.900Z,2.30
2018-07-31T22:01:43.955Z,2.37
2018-07-31T22:05:37.882Z,2.40
2018-07-31T22:09:36.143Z,2.40
2018-07-31T22:13:30.201Z,2.50
2018-07-31T22:17:24.167Z,2.20
2018-07-31T22:21:18.159Z,2.40
2018-07-31T22:25:12.227Z,1.93
2018-07-31T22:29:06.131Z,2.30
2018-07-31T22:33:00.188Z,2.10
2018-07-31T22:36:54.356Z,1.95
2018-07-31T22:40:47.863Z,2.10
2018-07-31T22:44:42.203Z,2.00
2018-07-31T22:48:36.380Z,1.77
2018-07-31T22:52:30.307Z,1.70
2018-07-31T22:56:24.247Z,2.07
2018-07-31T23:00:18.209Z,2.00
2018-07-31T23:04:12.455Z,1.80
2018-07-31T23:08:06.447Z,1.80
2018-07-31T23:12:00.831Z,1.63
2018-07-31T23:15:54.785Z,1.87
2018-07-31T23:19:48.734Z,2.20
2018-07-31T23:23:42.609Z,2.23
2018-07-31T23:27:36.838Z,1.47
2018-07-31T23:31:30.782Z,1.30
2018-07-31T23:35:24.466Z,1.40
2018-07-31T23:39:17.835Z,1.67
2018-07-31T23:43:11.782Z,1.53
2018-07-31T23:47:05.745Z,1.50
2018-07-31T23:50:59.767Z,1.80
2018-07-31T23:54:54.070Z,1.43
2018-07-31T23:58:48.060Z,1.20
